Time;durP1;ratioP1;P1;durP2;ratioP2;P2;SDS_P1;SDS_P2;PMS_P1;PMS_P2;Temp;Humidity;BMP_temperature;BMP_pressure;BME280_temperature;BME280_humidity;BME280_pressure;Samples;Min_cycle;Max_cycle;Signal;HPM_P1;HPM_P2
2023/06/05 00:04:53;;;;;;;4.65;2.83;;;;;;;;;;21004708;28;20098;-63
2023/06/05 00:14:54;;;;;;;7.25;3.03;;;;;;;;;;21003735;28;20079;-65
2023/06/05 00:24:55;;;;;;;4.40;2.95;;;;;;;;;;21004727;28;20174;-63
2023/06/05 00:34:57;;;;;;;3.63;2.75;;;;;;;;;;21002133;28;20055;-64
2023/06/05 00:44:58;;;;;;;6.63;3.63;;;;;;;;;;21001765;28;20131;-64
2023/06/05 00:54:59;;;;;;;4.28;2.78;;;;;;;;;;21002754;28;20049;-64
2023/06/05 01:05:03;;;;;;;5.10;3.53;;;;;;;;;;21000657;28;20036;-63
2023/06/05 01:15:08;;;;;;;4.78;3.42;;;;;;;;;;21000569;28;20044;-62
2023/06/05 01:25:11;;;;;;;6.35;3.10;;;;;;;;;;20998530;28;20053;-63
2023/06/05 01:35:19;;;;;;;4.40;3.03;;;;;;;;;;21000153;28;20155;-63
2023/06/05 01:45:21;;;;;;;4.88;3.40;;;;;;;;;;20998299;28;20512;-64
2023/06/05 01:55:23;;;;;;;6.57;3.17;;;;;;;;;;20997648;28;20045;-63
2023/06/05 02:05:27;;;;;;;4.80;2.97;;;;;;;;;;20997075;28;20155;-62
2023/06/05 02:15:31;;;;;;;5.22;3.30;;;;;;;;;;20996113;28;20048;-63
2023/06/05 02:25:33;;;;;;;5.57;3.50;;;;;;;;;;20995710;28;20044;-63
2023/06/05 02:35:35;;;;;;;5.70;3.50;;;;;;;;;;20995890;28;20500;-63
2023/06/05 02:45:37;;;;;;;5.63;3.33;;;;;;;;;;20995508;28;20561;-63
2023/06/05 02:55:40;;;;;;;6.18;3.33;;;;;;;;;;20993789;28;20045;-63
2023/06/05 03:05:42;;;;;;;3.50;2.70;;;;;;;;;;20993131;28;20062;-64
2023/06/05 03:15:44;;;;;;;4.93;3.33;;;;;;;;;;20992607;28;20048;-63
2023/06/05 03:25:45;;;;;;;4.18;3.08;;;;;;;;;;21000778;28;20110;-63
2023/06/05 03:35:46;;;;;;;4.60;2.80;;;;;;;;;;21008220;28;20077;-64
2023/06/05 03:45:48;;;;;;;4.85;3.30;;;;;;;;;;21007488;28;20049;-63
2023/06/05 03:55:52;;;;;;;5.57;3.25;;;;;;;;;;21006438;28;20079;-63
2023/06/05 04:05:53;;;;;;;6.35;3.30;;;;;;;;;;21004975;28;20048;-64
2023/06/05 04:15:54;;;;;;;4.93;3.50;;;;;;;;;;21005167;28;20044;-64
2023/06/05 04:25:56;;;;;;;6.30;3.42;;;;;;;;;;21004164;28;20533;-63
2023/06/05 04:35:57;;;;;;;5.57;3.65;;;;;;;;;;21002456;28;20129;-64
2023/06/05 04:46:00;;;;;;;6.32;3.92;;;;;;;;;;21003316;28;20048;-62
2023/06/05 04:56:01;;;;;;;5.50;3.65;;;;;;;;;;21002404;28;20102;-63
2023/06/05 05:06:02;;;;;;;5.82;3.08;;;;;;;;;;21000463;28;20101;-64
2023/06/05 05:16:04;;;;;;;6.47;3.28;;;;;;;;;;20999288;28;20131;-63
2023/06/05 05:26:05;;;;;;;6.13;3.35;;;;;;;;;;20998914;28;20056;-64
2023/06/05 05:36:07;;;;;;;7.03;3.28;;;;;;;;;;20997450;28;20092;-64
2023/06/05 05:46:08;;;;;;;4.75;2.97;;;;;;;;;;20997382;28;20058;-63
2023/06/05 05:56:09;;;;;;;5.68;3.40;;;;;;;;;;20997629;28;20045;-63
2023/06/05 06:06:11;;;;;;;4.13;2.88;;;;;;;;;;20996686;28;20040;-63
2023/06/05 06:16:13;;;;;;;4.40;3.30;;;;;;;;;;20996811;28;20121;-62
2023/06/05 06:26:14;;;;;;;4.80;3.38;;;;;;;;;;20995952;28;20574;-63
2023/06/05 06:36:17;;;;;;;4.80;3.47;;;;;;;;;;20995443;28;20044;-63
2023/06/05 06:46:18;;;;;;;6.28;3.92;;;;;;;;;;20995715;28;20049;-64
2023/06/05 06:56:19;;;;;;;11.05;4.53;;;;;;;;;;20998551;28;20044;-65
2023/06/05 07:06:22;;;;;;;5.72;4.10;;;;;;;;;;21011746;28;20090;-64
2023/06/05 07:16:23;;;;;;;8.60;4.50;;;;;;;;;;21011115;28;20444;-64
2023/06/05 07:26:25;;;;;;;9.93;4.30;;;;;;;;;;21009957;28;20129;-63
2023/06/05 07:36:26;;;;;;;6.45;2.90;;;;;;;;;;21009849;28;20123;-64
2023/06/05 07:46:27;;;;;;;5.55;3.10;;;;;;;;;;21009303;28;20043;-63
2023/06/05 07:56:28;;;;;;;6.18;3.53;;;;;;;;;;21007685;28;20123;-64
2023/06/05 08:06:29;;;;;;;4.68;2.97;;;;;;;;;;21005771;28;20098;-64
2023/06/05 08:16:30;;;;;;;4.82;3.45;;;;;;;;;;21006923;28;20049;-64
2023/06/05 08:26:32;;;;;;;5.78;3.50;;;;;;;;;;21005736;28;20162;-63
2023/06/05 08:36:35;;;;;;;4.88;3.40;;;;;;;;;;21004229;28;20048;-64
2023/06/05 08:46:37;;;;;;;8.70;5.93;;;;;;;;;;21004772;28;20428;-64
2023/06/05 08:56:38;;;;;;;10.52;5.68;;;;;;;;;;21003849;28;20076;-63
2023/06/05 09:06:39;;;;;;;5.43;3.90;;;;;;;;;;21002815;28;20041;-64
2023/06/05 09:16:45;;;;;;;9.00;4.75;;;;;;;;;;21001993;28;20091;-64
2023/06/05 09:26:47;;;;;;;8.57;4.63;;;;;;;;;;21000065;28;20532;-64
2023/06/05 09:36:48;;;;;;;6.70;4.13;;;;;;;;;;21000583;28;20064;-65
2023/06/05 09:46:55;;;;;;;8.27;4.70;;;;;;;;;;21000379;28;20044;-64
2023/06/05 09:56:56;;;;;;;;;;;;;;;;;;20998055;28;20080;-64
2023/06/05 10:07:00;;;;;;;9.98;3.63;;;;;;;;;;20998185;28;19928;-64
2023/06/05 10:17:02;;;;;;;5.20;3.10;;;;;;;;;;20996608;28;20139;-65
2023/06/05 10:27:12;;;;;;;7.32;4.13;;;;;;;;;;20996797;28;20052;-64
2023/06/05 10:37:25;;;;;;;5.20;3.00;;;;;;;;;;20996683;28;20072;-64
2023/06/05 10:47:32;;;;;;;7.50;4.10;;;;;;;;;;20995561;28;20123;-65
2023/06/05 10:57:34;;;;;;;;;;;;;;;;;;20996141;28;20036;-64
2023/06/05 11:07:37;;;;;;;6.72;3.00;;;;;;;;;;20994561;28;19927;-65
2023/06/05 11:17:46;;;;;;;3.70;2.40;;;;;;;;;;20994346;28;20052;-65
2023/06/05 11:27:51;;;;;;;4.32;2.67;;;;;;;;;;20994063;28;20468;-64
2023/06/05 11:38:07;;;;;;;4.47;2.42;;;;;;;;;;20994166;28;20056;-64
2023/06/05 11:48:12;;;;;;;5.93;2.10;;;;;;;;;;21004617;28;20409;-65
2023/06/05 11:58:21;;;;;;;7.38;2.40;;;;;;;;;;21006381;28;20041;-63
2023/06/05 12:08:25;;;;;;;3.75;2.08;;;;;;;;;;21005853;28;20481;-64
2023/06/05 12:18:33;;;;;;;5.47;2.80;;;;;;;;;;21004473;28;20040;-63
2023/06/05 12:28:34;;;;;;;3.67;2.10;;;;;;;;;;21004015;28;20513;-64
2023/06/05 12:38:38;;;;;;;3.60;2.05;;;;;;;;;;21002087;28;20060;-63
2023/06/05 12:48:40;;;;;;;8.65;6.35;;;;;;;;;;21002430;28;20497;-64
2023/06/05 12:58:41;;;;;;;3.28;1.80;;;;;;;;;;21001666;28;20040;-65
2023/06/05 13:08:43;;;;;;;3.17;1.60;;;;;;;;;;20999357;28;20041;-64
2023/06/05 13:18:44;;;;;;;3.53;1.60;;;;;;;;;;21000769;28;20062;-64
2023/06/05 13:28:45;;;;;;;2.45;1.50;;;;;;;;;;20997969;28;20136;-64
2023/06/05 13:38:47;;;;;;;2.03;1.00;;;;;;;;;;20998831;28;20049;-64
2023/06/05 13:48:48;;;;;;;2.95;1.52;;;;;;;;;;20997921;28;20486;-64
2023/06/05 13:58:50;;;;;;;3.17;1.83;;;;;;;;;;20996158;28;20055;-64
2023/06/05 14:08:51;;;;;;;3.60;2.20;;;;;;;;;;20996378;28;20382;-64
2023/06/05 14:18:53;;;;;;;4.30;2.08;;;;;;;;;;20996585;28;20040;-64
2023/06/05 14:28:54;;;;;;;3.65;2.15;;;;;;;;;;20994535;28;20057;-64
2023/06/05 14:38:55;;;;;;;4.22;1.67;;;;;;;;;;20996241;28;20128;-64
2023/06/05 14:48:56;;;;;;;3.58;1.40;;;;;;;;;;20996401;28;20048;-64
2023/06/05 14:58:57;;;;;;;3.05;1.67;;;;;;;;;;20995844;28;20040;-66
2023/06/05 15:08:58;;;;;;;3.10;1.40;;;;;;;;;;20995180;28;20474;-64
2023/06/05 15:19:00;;;;;;;3.78;1.60;;;;;;;;;;21000130;28;20418;-62
2023/06/05 15:29:01;;;;;;;5.47;1.90;;;;;;;;;;21009815;28;20060;-62
2023/06/05 15:39:02;;;;;;;2.13;1.33;;;;;;;;;;21010006;28;20158;-62
2023/06/05 15:49:03;;;;;;;3.38;1.20;;;;;;;;;;21008358;28;20052;-62
2023/06/05 15:59:04;;;;;;;8.98;3.40;;;;;;;;;;21008131;28;20037;-62
2023/06/05 16:09:06;;;;;;;4.90;2.33;;;;;;;;;;21007622;28;20045;-62
2023/06/05 16:19:07;;;;;;;6.38;3.20;;;;;;;;;;21005571;28;20044;-68
2023/06/05 16:29:09;;;;;;;5.78;3.33;;;;;;;;;;21004096;28;20110;-68
2023/06/05 16:39:10;;;;;;;6.18;2.30;;;;;;;;;;21004247;28;20059;-68
2023/06/05 16:49:11;;;;;;;11.75;2.80;;;;;;;;;;21001379;28;20059;-63
2023/06/05 16:59:13;;;;;;;5.53;2.80;;;;;;;;;;20969162;28;20090;-61
2023/06/05 17:09:16;;;;;;;5.63;2.35;;;;;;;;;;20941065;28;20051;-62
2023/06/05 17:19:17;;;;;;;4.00;2.10;;;;;;;;;;20938149;28;20067;-66
2023/06/05 17:29:18;;;;;;;7.25;4.13;;;;;;;;;;20967406;28;20052;-66
2023/06/05 17:39:19;;;;;;;3.97;1.80;;;;;;;;;;20942780;28;20049;-64
2023/06/05 17:49:20;;;;;;;3.42;1.67;;;;;;;;;;20915408;28;20045;-65
2023/06/05 17:59:21;;;;;;;4.90;1.80;;;;;;;;;;20967120;28;20040;-64
2023/06/05 18:09:24;;;;;;;4.88;1.80;;;;;;;;;;20945031;28;20064;-63
2023/06/05 18:19:25;;;;;;;6.82;2.10;;;;;;;;;;20975433;28;20489;-64
2023/06/05 18:29:27;;;;;;;4.78;1.98;;;;;;;;;;20993822;28;20080;-63
2023/06/05 18:39:28;;;;;;;4.65;2.25;;;;;;;;;;20994692;28;20091;-64
2023/06/05 18:49:29;;;;;;;2.58;1.98;;;;;;;;;;20993991;28;20133;-65
2023/06/05 18:59:30;;;;;;;6.15;2.17;;;;;;;;;;21010099;28;20182;-62
2023/06/05 19:09:31;;;;;;;6.35;2.60;;;;;;;;;;21010444;28;20041;-62
2023/06/05 19:19:33;;;;;;;5.07;2.28;;;;;;;;;;21009640;28;20045;-63
2023/06/05 19:29:35;;;;;;;2.63;1.35;;;;;;;;;;21008132;28;20060;-62
2023/06/05 19:39:36;;;;;;;3.38;1.63;;;;;;;;;;21009113;28;20443;-63
2023/06/05 19:49:37;;;;;;;5.82;2.20;;;;;;;;;;21008408;28;20121;-61
2023/06/05 19:59:38;;;;;;;3.17;1.83;;;;;;;;;;21006190;28;20036;-61
2023/06/05 20:09:39;;;;;;;6.35;2.15;;;;;;;;;;21005088;28;20044;-62
2023/06/05 20:19:41;;;;;;;2.83;1.58;;;;;;;;;;21006091;28;20055;-62
2023/06/05 20:29:43;;;;;;;2.25;1.30;;;;;;;;;;21004816;28;20104;-62
2023/06/05 20:39:47;;;;;;;5.50;3.20;;;;;;;;;;21005102;28;20377;-65
2023/06/05 20:49:48;;;;;;;3.25;1.58;;;;;;;;;;21002841;28;20492;-62
2023/06/05 20:59:50;;;;;;;2.78;1.63;;;;;;;;;;21002906;28;20457;-62
2023/06/05 21:09:51;;;;;;;3.88;1.70;;;;;;;;;;21002486;28;20044;-62
2023/06/05 21:19:52;;;;;;;3.58;1.63;;;;;;;;;;21001021;28;20044;-62
2023/06/05 21:29:53;;;;;;;3.42;1.60;;;;;;;;;;20999647;28;20102;-62
2023/06/05 21:39:54;;;;;;;3.08;1.73;;;;;;;;;;20998894;28;20076;-62
2023/06/05 21:49:55;;;;;;;3.22;1.73;;;;;;;;;;20997162;28;20504;-61
2023/06/05 21:59:59;;;;;;;4.65;2.40;;;;;;;;;;20997542;28;20051;-61
2023/06/05 22:10:00;;;;;;;4.47;2.15;;;;;;;;;;20998179;28;20441;-63
2023/06/05 22:20:04;;;;;;;8.63;4.03;;;;;;;;;;20997199;28;20482;-61
2023/06/05 22:30:05;;;;;;;3.08;1.60;;;;;;;;;;20995179;28;20052;-61
2023/06/05 22:40:07;;;;;;;7.85;3.40;;;;;;;;;;20996715;28;20466;-62
2023/06/05 22:50:08;;;;;;;4.57;2.35;;;;;;;;;;20996481;28;20040;-61
2023/06/05 23:00:10;;;;;;;5.75;2.55;;;;;;;;;;20995807;28;20040;-61
2023/06/05 23:10:12;;;;;;;3.97;1.90;;;;;;;;;;20995729;28;20504;-62
2023/06/05 23:20:13;;;;;;;3.90;2.08;;;;;;;;;;20995399;28;20124;-63
2023/06/05 23:30:15;;;;;;;4.82;3.00;;;;;;;;;;20994282;28;20532;-62
2023/06/05 23:40:16;;;;;;;3.35;2.40;;;;;;;;;;20999668;28;20098;-62
2023/06/05 23:50:21;;;;;;;5.57;3.10;;;;;;;;;;21009107;28;20509;-62
